sensor_id;sensor_type;location;lat;lon;timestamp;P1;durP1;ratioP1;P2;durP2;ratioP2
40945;SDS011;55635;50.264;11.918;2024-01-15T00:01:04;50.33;;;20.98;;
40945;SDS011;55635;50.264;11.918;2024-01-15T00:03:45;49.83;;;21.27;;
40945;SDS011;55635;50.264;11.918;2024-01-15T00:06:26;52.80;;;19.63;;
40945;SDS011;55635;50.264;11.918;2024-01-15T00:09:08;58.72;;;24.17;;
40945;SDS011;55635;50.264;11.918;2024-01-15T00:11:50;50.92;;;21.38;;
40945;SDS011;55635;50.264;11.918;2024-01-15T00:14:31;48.88;;;18.65;;
40945;SDS011;55635;50.264;11.918;2024-01-15T00:17:12;50.67;;;19.05;;
40945;SDS011;55635;50.264;11.918;2024-01-15T00:19:53;51.17;;;20.42;;
40945;SDS011;55635;50.264;11.918;2024-01-15T00:22:34;45.03;;;17.85;;
40945;SDS011;55635;50.264;11.918;2024-01-15T00:25:15;49.55;;;19.13;;
40945;SDS011;55635;50.264;11.918;2024-01-15T00:27:57;46.53;;;18.60;;
40945;SDS011;55635;50.264;11.918;2024-01-15T00:30:39;42.42;;;17.00;;
40945;SDS011;55635;50.264;11.918;2024-01-15T00:33:20;42.03;;;19.02;;
40945;SDS011;55635;50.264;11.918;2024-01-15T00:36:01;47.80;;;18.45;;
40945;SDS011;55635;50.264;11.918;2024-01-15T00:38:43;43.95;;;16.10;;
40945;SDS011;55635;50.264;11.918;2024-01-15T00:41:24;47.58;;;19.17;;
40945;SDS011;55635;50.264;11.918;2024-01-15T00:44:07;49.28;;;19.17;;
40945;SDS011;55635;50.264;11.918;2024-01-15T00:46:48;49.83;;;18.23;;
40945;SDS011;55635;50.264;11.918;2024-01-15T00:49:29;46.30;;;18.48;;
40945;SDS011;55635;50.264;11.918;2024-01-15T00:52:10;57.20;;;20.70;;
40945;SDS011;55635;50.264;11.918;2024-01-15T00:54:51;57.38;;;20.05;;
40945;SDS011;55635;50.264;11.918;2024-01-15T00:57:32;52.58;;;19.83;;
40945;SDS011;55635;50.264;11.918;2024-01-15T01:00:14;61.20;;;21.75;;
40945;SDS011;55635;50.264;11.918;2024-01-15T01:02:55;60.80;;;23.15;;
40945;SDS011;55635;50.264;11.918;2024-01-15T01:05:37;60.13;;;20.77;;
40945;SDS011;55635;50.264;11.918;2024-01-15T01:08:18;67.30;;;21.88;;
40945;SDS011;55635;50.264;11.918;2024-01-15T01:10:59;66.88;;;24.48;;
40945;SDS011;55635;50.264;11.918;2024-01-15T01:13:40;67.65;;;23.08;;
40945;SDS011;55635;50.264;11.918;2024-01-15T01:16:22;73.47;;;22.35;;
40945;SDS011;55635;50.264;11.918;2024-01-15T01:19:03;67.45;;;21.35;;
40945;SDS011;55635;50.264;11.918;2024-01-15T01:21:45;68.82;;;22.65;;
40945;SDS011;55635;50.264;11.918;2024-01-15T01:24:26;70.25;;;23.70;;
40945;SDS011;55635;50.264;11.918;2024-01-15T01:27:08;66.80;;;22.20;;
40945;SDS011;55635;50.264;11.918;2024-01-15T01:29:48;67.22;;;23.05;;
40945;SDS011;55635;50.264;11.918;2024-01-15T01:32:30;68.07;;;23.25;;
40945;SDS011;55635;50.264;11.918;2024-01-15T01:35:14;55.33;;;18.85;;
40945;SDS011;55635;50.264;11.918;2024-01-15T01:37:55;53.97;;;19.17;;
40945;SDS011;55635;50.264;11.918;2024-01-15T01:40:36;54.45;;;19.83;;
40945;SDS011;55635;50.264;11.918;2024-01-15T01:43:17;51.78;;;18.98;;
40945;SDS011;55635;50.264;11.918;2024-01-15T01:45:59;60.97;;;19.75;;
40945;SDS011;55635;50.264;11.918;2024-01-15T01:48:43;55.88;;;19.15;;
40945;SDS011;55635;50.264;11.918;2024-01-15T01:51:24;45.80;;;18.38;;
40945;SDS011;55635;50.264;11.918;2024-01-15T01:54:05;63.35;;;21.42;;
40945;SDS011;55635;50.264;11.918;2024-01-15T01:56:49;64.43;;;21.95;;
40945;SDS011;55635;50.264;11.918;2024-01-15T01:59:32;61.00;;;20.90;;
40945;SDS011;55635;50.264;11.918;2024-01-15T02:02:15;62.38;;;20.90;;
40945;SDS011;55635;50.264;11.918;2024-01-15T02:05:00;60.13;;;22.08;;
40945;SDS011;55635;50.264;11.918;2024-01-15T02:07:43;61.85;;;21.17;;
40945;SDS011;55635;50.264;11.918;2024-01-15T02:10:25;69.90;;;21.60;;
40945;SDS011;55635;50.264;11.918;2024-01-15T02:13:06;58.65;;;21.48;;
40945;SDS011;55635;50.264;11.918;2024-01-15T02:15:47;63.45;;;21.50;;
40945;SDS011;55635;50.264;11.918;2024-01-15T02:18:28;63.22;;;21.83;;
40945;SDS011;55635;50.264;11.918;2024-01-15T02:21:19;56.95;;;19.90;;
40945;SDS011;55635;50.264;11.918;2024-01-15T02:24:00;60.45;;;18.40;;
40945;SDS011;55635;50.264;11.918;2024-01-15T02:26:42;56.20;;;18.45;;
40945;SDS011;55635;50.264;11.918;2024-01-15T02:29:23;52.75;;;18.45;;
40945;SDS011;55635;50.264;11.918;2024-01-15T02:32:05;53.60;;;18.35;;
40945;SDS011;55635;50.264;11.918;2024-01-15T02:34:46;49.78;;;17.40;;
40945;SDS011;55635;50.264;11.918;2024-01-15T02:37:28;56.67;;;19.20;;
40945;SDS011;55635;50.264;11.918;2024-01-15T02:40:09;51.08;;;17.85;;
40945;SDS011;55635;50.264;11.918;2024-01-15T02:42:50;48.92;;;16.65;;
40945;SDS011;55635;50.264;11.918;2024-01-15T02:45:31;51.00;;;18.60;;
40945;SDS011;55635;50.264;11.918;2024-01-15T02:48:12;59.35;;;17.73;;
40945;SDS011;55635;50.264;11.918;2024-01-15T02:50:54;49.70;;;16.58;;
40945;SDS011;55635;50.264;11.918;2024-01-15T02:53:36;51.75;;;17.58;;
40945;SDS011;55635;50.264;11.918;2024-01-15T02:56:17;49.88;;;18.33;;
40945;SDS011;55635;50.264;11.918;2024-01-15T02:58:58;40.20;;;15.20;;
40945;SDS011;55635;50.264;11.918;2024-01-15T03:01:40;51.55;;;18.92;;
40945;SDS011;55635;50.264;11.918;2024-01-15T03:04:21;53.53;;;19.13;;
40945;SDS011;55635;50.264;11.918;2024-01-15T03:07:02;53.28;;;17.90;;
40945;SDS011;55635;50.264;11.918;2024-01-15T03:09:43;49.13;;;16.77;;
40945;SDS011;55635;50.264;11.918;2024-01-15T03:12:24;59.33;;;19.25;;
40945;SDS011;55635;50.264;11.918;2024-01-15T03:15:06;46.08;;;18.92;;
40945;SDS011;55635;50.264;11.918;2024-01-15T03:17:47;50.63;;;18.85;;
40945;SDS011;55635;50.264;11.918;2024-01-15T03:20:28;54.92;;;18.35;;
40945;SDS011;55635;50.264;11.918;2024-01-15T03:23:09;55.10;;;17.27;;
40945;SDS011;55635;50.264;11.918;2024-01-15T03:25:50;55.90;;;18.63;;
40945;SDS011;55635;50.264;11.918;2024-01-15T03:28:31;60.10;;;19.52;;
40945;SDS011;55635;50.264;11.918;2024-01-15T03:31:12;58.33;;;19.45;;
40945;SDS011;55635;50.264;11.918;2024-01-15T03:33:53;49.17;;;18.00;;
40945;SDS011;55635;50.264;11.918;2024-01-15T03:36:35;57.92;;;19.13;;
40945;SDS011;55635;50.264;11.918;2024-01-15T03:39:16;51.38;;;18.00;;
40945;SDS011;55635;50.264;11.918;2024-01-15T03:41:57;63.40;;;19.45;;
40945;SDS011;55635;50.264;11.918;2024-01-15T03:44:38;52.42;;;17.30;;
40945;SDS011;55635;50.264;11.918;2024-01-15T03:47:19;56.97;;;19.20;;
40945;SDS011;55635;50.264;11.918;2024-01-15T03:50:00;58.38;;;19.77;;
40945;SDS011;55635;50.264;11.918;2024-01-15T03:52:42;57.22;;;19.38;;
40945;SDS011;55635;50.264;11.918;2024-01-15T03:55:23;50.75;;;16.98;;
40945;SDS011;55635;50.264;11.918;2024-01-15T03:58:04;67.45;;;20.67;;
40945;SDS011;55635;50.264;11.918;2024-01-15T04:00:45;65.43;;;19.20;;
40945;SDS011;55635;50.264;11.918;2024-01-15T04:03:27;65.13;;;21.00;;
40945;SDS011;55635;50.264;11.918;2024-01-15T04:06:08;65.05;;;20.63;;
40945;SDS011;55635;50.264;11.918;2024-01-15T04:08:49;59.38;;;19.17;;
40945;SDS011;55635;50.264;11.918;2024-01-15T04:11:30;53.67;;;18.55;;
40945;SDS011;55635;50.264;11.918;2024-01-15T04:14:11;55.70;;;19.08;;
40945;SDS011;55635;50.264;11.918;2024-01-15T04:16:52;55.67;;;20.35;;
40945;SDS011;55635;50.264;11.918;2024-01-15T04:19:34;59.83;;;18.65;;
40945;SDS011;55635;50.264;11.918;2024-01-15T04:22:15;53.15;;;18.05;;
40945;SDS011;55635;50.264;11.918;2024-01-15T04:24:56;61.60;;;19.95;;
40945;SDS011;55635;50.264;11.918;2024-01-15T04:27:38;63.38;;;18.65;;
40945;SDS011;55635;50.264;11.918;2024-01-15T04:30:19;66.07;;;19.30;;
40945;SDS011;55635;50.264;11.918;2024-01-15T04:33:00;57.50;;;19.20;;
40945;SDS011;55635;50.264;11.918;2024-01-15T04:35:41;59.50;;;18.20;;
40945;SDS011;55635;50.264;11.918;2024-01-15T04:38:22;57.85;;;19.77;;
40945;SDS011;55635;50.264;11.918;2024-01-15T04:41:03;50.05;;;17.52;;
40945;SDS011;55635;50.264;11.918;2024-01-15T04:43:45;60.15;;;19.17;;
40945;SDS011;55635;50.264;11.918;2024-01-15T04:46:26;52.72;;;18.00;;
40945;SDS011;55635;50.264;11.918;2024-01-15T04:49:07;57.38;;;18.38;;
40945;SDS011;55635;50.264;11.918;2024-01-15T04:51:48;48.13;;;17.23;;
40945;SDS011;55635;50.264;11.918;2024-01-15T04:54:29;48.85;;;17.60;;
40945;SDS011;55635;50.264;11.918;2024-01-15T04:57:10;46.97;;;16.30;;
40945;SDS011;55635;50.264;11.918;2024-01-15T04:59:51;55.85;;;17.42;;
40945;SDS011;55635;50.264;11.918;2024-01-15T05:02:32;57.28;;;17.63;;
40945;SDS011;55635;50.264;11.918;2024-01-15T05:05:14;46.55;;;16.58;;
40945;SDS011;55635;50.264;11.918;2024-01-15T05:07:55;47.45;;;17.95;;
40945;SDS011;55635;50.264;11.918;2024-01-15T05:10:36;49.97;;;15.88;;
40945;SDS011;55635;50.264;11.918;2024-01-15T05:13:17;46.20;;;17.92;;
40945;SDS011;55635;50.264;11.918;2024-01-15T05:15:58;54.20;;;18.00;;
40945;SDS011;55635;50.264;11.918;2024-01-15T05:18:39;45.90;;;16.13;;
40945;SDS011;55635;50.264;11.918;2024-01-15T05:21:21;46.92;;;17.95;;
40945;SDS011;55635;50.264;11.918;2024-01-15T05:24:02;46.25;;;16.33;;
40945;SDS011;55635;50.264;11.918;2024-01-15T05:26:43;43.58;;;16.25;;
40945;SDS011;55635;50.264;11.918;2024-01-15T05:29:24;44.85;;;14.00;;
40945;SDS011;55635;50.264;11.918;2024-01-15T05:32:05;39.53;;;14.65;;
40945;SDS011;55635;50.264;11.918;2024-01-15T05:34:46;44.42;;;15.93;;
40945;SDS011;55635;50.264;11.918;2024-01-15T05:37:27;48.08;;;15.02;;
40945;SDS011;55635;50.264;11.918;2024-01-15T05:40:09;41.60;;;15.35;;
40945;SDS011;55635;50.264;11.918;2024-01-15T05:42:50;41.33;;;13.90;;
40945;SDS011;55635;50.264;11.918;2024-01-15T05:45:31;37.47;;;14.70;;
40945;SDS011;55635;50.264;11.918;2024-01-15T05:48:14;35.33;;;13.07;;
40945;SDS011;55635;50.264;11.918;2024-01-15T05:50:55;33.90;;;13.07;;
40945;SDS011;55635;50.264;11.918;2024-01-15T05:53:36;31.67;;;12.88;;
40945;SDS011;55635;50.264;11.918;2024-01-15T05:56:20;29.80;;;12.55;;
40945;SDS011;55635;50.264;11.918;2024-01-15T05:59:01;31.50;;;12.23;;
40945;SDS011;55635;50.264;11.918;2024-01-15T06:01:42;30.80;;;11.90;;
40945;SDS011;55635;50.264;11.918;2024-01-15T06:04:24;27.23;;;11.60;;
40945;SDS011;55635;50.264;11.918;2024-01-15T06:07:04;33.45;;;12.30;;
40945;SDS011;55635;50.264;11.918;2024-01-15T06:09:46;33.95;;;12.55;;
40945;SDS011;55635;50.264;11.918;2024-01-15T06:12:27;33.17;;;13.27;;
40945;SDS011;55635;50.264;11.918;2024-01-15T06:15:08;31.13;;;12.63;;
40945;SDS011;55635;50.264;11.918;2024-01-15T06:17:50;30.80;;;12.05;;
40945;SDS011;55635;50.264;11.918;2024-01-15T06:20:30;27.98;;;12.43;;
40945;SDS011;55635;50.264;11.918;2024-01-15T06:23:12;23.33;;;11.05;;
40945;SDS011;55635;50.264;11.918;2024-01-15T06:25:53;31.35;;;12.70;;
40945;SDS011;55635;50.264;11.918;2024-01-15T06:28:34;36.30;;;12.80;;
40945;SDS011;55635;50.264;11.918;2024-01-15T06:31:15;35.38;;;14.10;;
40945;SDS011;55635;50.264;11.918;2024-01-15T06:33:57;33.00;;;14.32;;
40945;SDS011;55635;50.264;11.918;2024-01-15T06:36:38;37.97;;;15.25;;
40945;SDS011;55635;50.264;11.918;2024-01-15T06:39:20;38.22;;;16.02;;
40945;SDS011;55635;50.264;11.918;2024-01-15T06:42:01;39.63;;;14.88;;
40945;SDS011;55635;50.264;11.918;2024-01-15T06:44:43;37.40;;;15.20;;
40945;SDS011;55635;50.264;11.918;2024-01-15T06:47:24;39.20;;;15.32;;
40945;SDS011;55635;50.264;11.918;2024-01-15T06:50:05;42.72;;;15.20;;
40945;SDS011;55635;50.264;11.918;2024-01-15T06:52:47;42.58;;;16.63;;
40945;SDS011;55635;50.264;11.918;2024-01-15T06:55:28;40.05;;;15.95;;
40945;SDS011;55635;50.264;11.918;2024-01-15T06:58:09;32.63;;;13.98;;
40945;SDS011;55635;50.264;11.918;2024-01-15T07:00:50;40.78;;;15.63;;
40945;SDS011;55635;50.264;11.918;2024-01-15T07:03:31;41.15;;;15.98;;
40945;SDS011;55635;50.264;11.918;2024-01-15T07:06:12;48.53;;;15.98;;
40945;SDS011;55635;50.264;11.918;2024-01-15T07:08:53;40.28;;;15.52;;
40945;SDS011;55635;50.264;11.918;2024-01-15T07:11:34;38.47;;;16.23;;
40945;SDS011;55635;50.264;11.918;2024-01-15T07:14:15;41.40;;;15.15;;
40945;SDS011;55635;50.264;11.918;2024-01-15T07:16:56;39.53;;;15.88;;
40945;SDS011;55635;50.264;11.918;2024-01-15T07:19:37;37.13;;;15.85;;
40945;SDS011;55635;50.264;11.918;2024-01-15T07:22:18;43.13;;;17.95;;
40945;SDS011;55635;50.264;11.918;2024-01-15T07:24:59;38.45;;;15.75;;
40945;SDS011;55635;50.264;11.918;2024-01-15T07:27:41;35.78;;;14.02;;
40945;SDS011;55635;50.264;11.918;2024-01-15T07:30:24;36.50;;;14.05;;
40945;SDS011;55635;50.264;11.918;2024-01-15T07:33:05;27.73;;;13.10;;
40945;SDS011;55635;50.264;11.918;2024-01-15T07:35:46;31.02;;;12.43;;
40945;SDS011;55635;50.264;11.918;2024-01-15T07:38:28;34.10;;;14.07;;
40945;SDS011;55635;50.264;11.918;2024-01-15T07:41:09;35.28;;;14.20;;
40945;SDS011;55635;50.264;11.918;2024-01-15T07:43:50;31.48;;;13.13;;
40945;SDS011;55635;50.264;11.918;2024-01-15T07:46:31;36.70;;;14.60;;
40945;SDS011;55635;50.264;11.918;2024-01-15T07:49:12;30.35;;;13.05;;
40945;SDS011;55635;50.264;11.918;2024-01-15T07:51:54;34.15;;;14.48;;
40945;SDS011;55635;50.264;11.918;2024-01-15T07:54:34;37.65;;;15.05;;
40945;SDS011;55635;50.264;11.918;2024-01-15T07:57:16;34.85;;;14.07;;
40945;SDS011;55635;50.264;11.918;2024-01-15T07:59:56;32.83;;;13.95;;
40945;SDS011;55635;50.264;11.918;2024-01-15T08:02:38;35.67;;;15.18;;
40945;SDS011;55635;50.264;11.918;2024-01-15T08:05:19;32.88;;;13.85;;
40945;SDS011;55635;50.264;11.918;2024-01-15T08:08:00;31.33;;;13.65;;
40945;SDS011;55635;50.264;11.918;2024-01-15T08:10:42;30.88;;;14.02;;
40945;SDS011;55635;50.264;11.918;2024-01-15T08:13:23;26.63;;;12.07;;
40945;SDS011;55635;50.264;11.918;2024-01-15T08:16:07;27.42;;;11.85;;
40945;SDS011;55635;50.264;11.918;2024-01-15T08:18:49;27.38;;;12.88;;
40945;SDS011;55635;50.264;11.918;2024-01-15T08:21:30;30.95;;;13.40;;
40945;SDS011;55635;50.264;11.918;2024-01-15T08:24:12;30.58;;;12.77;;
40945;SDS011;55635;50.264;11.918;2024-01-15T08:26:54;26.75;;;10.82;;
40945;SDS011;55635;50.264;11.918;2024-01-15T08:29:36;26.02;;;11.98;;
40945;SDS011;55635;50.264;11.918;2024-01-15T08:32:17;22.92;;;10.88;;
40945;SDS011;55635;50.264;11.918;2024-01-15T08:34:58;29.30;;;12.57;;
40945;SDS011;55635;50.264;11.918;2024-01-15T08:37:39;34.25;;;12.38;;
40945;SDS011;55635;50.264;11.918;2024-01-15T08:40:20;29.50;;;12.23;;
40945;SDS011;55635;50.264;11.918;2024-01-15T08:43:01;30.00;;;12.88;;
40945;SDS011;55635;50.264;11.918;2024-01-15T08:45:42;27.85;;;12.32;;
40945;SDS011;55635;50.264;11.918;2024-01-15T08:48:23;29.33;;;11.05;;
40945;SDS011;55635;50.264;11.918;2024-01-15T08:51:07;26.67;;;11.55;;
40945;SDS011;55635;50.264;11.918;2024-01-15T08:53:48;30.08;;;12.77;;
40945;SDS011;55635;50.264;11.918;2024-01-15T08:56:29;25.02;;;11.30;;
40945;SDS011;55635;50.264;11.918;2024-01-15T08:59:13;28.58;;;11.88;;
40945;SDS011;55635;50.264;11.918;2024-01-15T09:01:54;25.15;;;11.40;;
40945;SDS011;55635;50.264;11.918;2024-01-15T09:04:38;23.90;;;11.57;;
40945;SDS011;55635;50.264;11.918;2024-01-15T09:07:19;20.75;;;10.65;;
40945;SDS011;55635;50.264;11.918;2024-01-15T09:10:01;29.08;;;11.95;;
40945;SDS011;55635;50.264;11.918;2024-01-15T09:12:42;25.70;;;10.63;;
40945;SDS011;55635;50.264;11.918;2024-01-15T09:15:23;22.10;;;11.35;;
40945;SDS011;55635;50.264;11.918;2024-01-15T09:18:04;25.65;;;10.77;;
40945;SDS011;55635;50.264;11.918;2024-01-15T09:20:47;22.95;;;11.05;;
40945;SDS011;55635;50.264;11.918;2024-01-15T09:23:28;25.67;;;11.05;;
40945;SDS011;55635;50.264;11.918;2024-01-15T09:26:09;23.00;;;10.63;;
40945;SDS011;55635;50.264;11.918;2024-01-15T09:28:51;27.80;;;11.27;;
40945;SDS011;55635;50.264;11.918;2024-01-15T09:31:32;25.13;;;10.05;;
40945;SDS011;55635;50.264;11.918;2024-01-15T09:34:13;21.30;;;10.35;;
40945;SDS011;55635;50.264;11.918;2024-01-15T09:36:54;24.88;;;11.25;;
40945;SDS011;55635;50.264;11.918;2024-01-15T09:39:35;24.08;;;10.65;;
40945;SDS011;55635;50.264;11.918;2024-01-15T09:42:16;21.05;;;10.85;;
40945;SDS011;55635;50.264;11.918;2024-01-15T09:44:58;21.90;;;9.35;;
40945;SDS011;55635;50.264;11.918;2024-01-15T09:47:40;24.65;;;11.52;;
40945;SDS011;55635;50.264;11.918;2024-01-15T09:50:22;21.75;;;9.73;;
40945;SDS011;55635;50.264;11.918;2024-01-15T09:53:03;26.92;;;11.63;;
40945;SDS011;55635;50.264;11.918;2024-01-15T09:55:46;20.98;;;9.48;;
40945;SDS011;55635;50.264;11.918;2024-01-15T09:58:29;23.83;;;11.20;;
40945;SDS011;55635;50.264;11.918;2024-01-15T10:01:11;23.08;;;9.90;;
40945;SDS011;55635;50.264;11.918;2024-01-15T10:03:55;21.83;;;10.43;;
40945;SDS011;55635;50.264;11.918;2024-01-15T10:06:36;23.40;;;10.38;;
40945;SDS011;55635;50.264;11.918;2024-01-15T10:09:19;20.05;;;9.05;;
40945;SDS011;55635;50.264;11.918;2024-01-15T10:12:00;23.40;;;9.73;;
40945;SDS011;55635;50.264;11.918;2024-01-15T10:14:42;21.83;;;9.05;;
40945;SDS011;55635;50.264;11.918;2024-01-15T10:17:23;17.02;;;9.27;;
40945;SDS011;55635;50.264;11.918;2024-01-15T10:20:10;20.92;;;9.40;;
40945;SDS011;55635;50.264;11.918;2024-01-15T10:22:52;23.58;;;10.32;;
40945;SDS011;55635;50.264;11.918;2024-01-15T10:25:35;20.48;;;9.95;;
40945;SDS011;55635;50.264;11.918;2024-01-15T10:28:16;21.85;;;9.63;;
40945;SDS011;55635;50.264;11.918;2024-01-15T10:31:00;21.33;;;9.63;;
40945;SDS011;55635;50.264;11.918;2024-01-15T10:33:41;19.65;;;9.48;;
40945;SDS011;55635;50.264;11.918;2024-01-15T10:36:23;25.17;;;10.05;;
40945;SDS011;55635;50.264;11.918;2024-01-15T10:39:04;23.15;;;10.23;;
40945;SDS011;55635;50.264;11.918;2024-01-15T10:41:46;21.73;;;9.20;;
40945;SDS011;55635;50.264;11.918;2024-01-15T10:44:27;21.25;;;9.30;;
40945;SDS011;55635;50.264;11.918;2024-01-15T10:47:09;21.50;;;10.30;;
40945;SDS011;55635;50.264;11.918;2024-01-15T10:49:51;21.30;;;9.68;;
40945;SDS011;55635;50.264;11.918;2024-01-15T10:52:36;22.52;;;9.60;;
40945;SDS011;55635;50.264;11.918;2024-01-15T10:55:23;21.23;;;10.15;;
40945;SDS011;55635;50.264;11.918;2024-01-15T10:58:05;19.33;;;8.88;;
40945;SDS011;55635;50.264;11.918;2024-01-15T11:00:48;18.70;;;9.05;;
40945;SDS011;55635;50.264;11.918;2024-01-15T11:03:29;23.63;;;11.15;;
40945;SDS011;55635;50.264;11.918;2024-01-15T11:06:19;15.48;;;8.82;;
40945;SDS011;55635;50.264;11.918;2024-01-15T11:09:03;19.98;;;9.52;;
40945;SDS011;55635;50.264;11.918;2024-01-15T11:11:45;17.35;;;9.00;;
40945;SDS011;55635;50.264;11.918;2024-01-15T11:14:34;22.50;;;9.15;;
40945;SDS011;55635;50.264;11.918;2024-01-15T11:17:24;20.23;;;9.52;;
40945;SDS011;55635;50.264;11.918;2024-01-15T11:20:06;17.45;;;8.40;;
40945;SDS011;55635;50.264;11.918;2024-01-15T11:22:48;22.30;;;8.35;;
40945;SDS011;55635;50.264;11.918;2024-01-15T11:25:35;21.52;;;7.70;;
40945;SDS011;55635;50.264;11.918;2024-01-15T11:28:46;22.02;;;8.60;;
40945;SDS011;55635;50.264;11.918;2024-01-15T11:31:29;21.42;;;9.00;;
40945;SDS011;55635;50.264;11.918;2024-01-15T11:43:14;21.13;;;9.13;;
40945;SDS011;55635;50.264;11.918;2024-01-15T11:46:01;18.33;;;8.75;;
40945;SDS011;55635;50.264;11.918;2024-01-15T11:48:44;20.45;;;9.43;;
40945;SDS011;55635;50.264;11.918;2024-01-15T11:51:25;16.90;;;8.10;;
40945;SDS011;55635;50.264;11.918;2024-01-15T11:54:07;17.13;;;7.75;;
40945;SDS011;55635;50.264;11.918;2024-01-15T11:56:52;18.98;;;8.25;;
40945;SDS011;55635;50.264;11.918;2024-01-15T11:59:34;15.43;;;7.60;;
40945;SDS011;55635;50.264;11.918;2024-01-15T12:02:16;16.58;;;7.97;;
40945;SDS011;55635;50.264;11.918;2024-01-15T12:04:57;15.98;;;8.70;;
40945;SDS011;55635;50.264;11.918;2024-01-15T12:07:39;22.05;;;8.80;;
40945;SDS011;55635;50.264;11.918;2024-01-15T12:10:21;21.38;;;8.13;;
40945;SDS011;55635;50.264;11.918;2024-01-15T12:13:13;18.65;;;9.02;;
40945;SDS011;55635;50.264;11.918;2024-01-15T12:15:55;19.38;;;9.20;;
40945;SDS011;55635;50.264;11.918;2024-01-15T12:18:37;17.92;;;9.13;;
40945;SDS011;55635;50.264;11.918;2024-01-15T12:21:18;18.90;;;8.13;;
40945;SDS011;55635;50.264;11.918;2024-01-15T12:23:59;18.02;;;8.50;;
40945;SDS011;55635;50.264;11.918;2024-01-15T12:26:41;17.77;;;8.68;;
40945;SDS011;55635;50.264;11.918;2024-01-15T12:29:22;19.92;;;9.27;;
40945;SDS011;55635;50.264;11.918;2024-01-15T12:32:04;21.40;;;9.13;;
40945;SDS011;55635;50.264;11.918;2024-01-15T12:34:45;20.88;;;9.68;;
40945;SDS011;55635;50.264;11.918;2024-01-15T12:37:26;21.35;;;9.57;;
40945;SDS011;55635;50.264;11.918;2024-01-15T12:40:09;21.67;;;8.65;;
40945;SDS011;55635;50.264;11.918;2024-01-15T12:42:51;25.60;;;11.45;;
40945;SDS011;55635;50.264;11.918;2024-01-15T12:45:32;19.38;;;10.07;;
40945;SDS011;55635;50.264;11.918;2024-01-15T12:48:15;19.92;;;10.35;;
40945;SDS011;55635;50.264;11.918;2024-01-15T12:50:57;22.52;;;10.13;;
40945;SDS011;55635;50.264;11.918;2024-01-15T12:53:38;22.90;;;9.55;;
40945;SDS011;55635;50.264;11.918;2024-01-15T12:56:19;25.45;;;9.57;;
40945;SDS011;55635;50.264;11.918;2024-01-15T12:59:01;18.92;;;9.75;;
40945;SDS011;55635;50.264;11.918;2024-01-15T13:01:42;21.83;;;9.90;;
40945;SDS011;55635;50.264;11.918;2024-01-15T13:04:24;23.13;;;9.60;;
40945;SDS011;55635;50.264;11.918;2024-01-15T13:07:05;22.30;;;10.05;;
40945;SDS011;55635;50.264;11.918;2024-01-15T13:09:47;18.70;;;10.48;;
40945;SDS011;55635;50.264;11.918;2024-01-15T13:12:33;22.17;;;10.48;;
40945;SDS011;55635;50.264;11.918;2024-01-15T13:15:14;23.45;;;10.75;;
40945;SDS011;55635;50.264;11.918;2024-01-15T13:17:56;26.35;;;11.85;;
40945;SDS011;55635;50.264;11.918;2024-01-15T13:20:37;26.13;;;12.63;;
40945;SDS011;55635;50.264;11.918;2024-01-15T13:23:18;26.30;;;12.02;;
40945;SDS011;55635;50.264;11.918;2024-01-15T13:26:00;25.98;;;11.30;;
40945;SDS011;55635;50.264;11.918;2024-01-15T13:28:41;27.48;;;10.68;;
40945;SDS011;55635;50.264;11.918;2024-01-15T13:31:22;22.30;;;10.30;;
40945;SDS011;55635;50.264;11.918;2024-01-15T13:34:03;23.70;;;11.40;;
40945;SDS011;55635;50.264;11.918;2024-01-15T13:36:44;25.45;;;10.52;;
40945;SDS011;55635;50.264;11.918;2024-01-15T13:39:25;25.42;;;10.43;;
40945;SDS011;55635;50.264;11.918;2024-01-15T13:42:07;24.45;;;10.95;;
40945;SDS011;55635;50.264;11.918;2024-01-15T13:44:47;24.73;;;10.88;;
40945;SDS011;55635;50.264;11.918;2024-01-15T13:47:29;25.98;;;11.90;;
40945;SDS011;55635;50.264;11.918;2024-01-15T13:50:10;22.55;;;10.13;;
40945;SDS011;55635;50.264;11.918;2024-01-15T13:52:52;22.25;;;9.68;;
40945;SDS011;55635;50.264;11.918;2024-01-15T13:55:33;23.27;;;9.90;;
40945;SDS011;55635;50.264;11.918;2024-01-15T13:58:14;21.25;;;9.85;;
40945;SDS011;55635;50.264;11.918;2024-01-15T14:00:56;18.27;;;9.45;;
40945;SDS011;55635;50.264;11.918;2024-01-15T14:03:37;14.95;;;8.35;;
40945;SDS011;55635;50.264;11.918;2024-01-15T14:06:18;15.80;;;8.10;;
40945;SDS011;55635;50.264;11.918;2024-01-15T14:09:00;20.23;;;9.60;;
40945;SDS011;55635;50.264;11.918;2024-01-15T14:11:41;15.27;;;9.10;;
40945;SDS011;55635;50.264;11.918;2024-01-15T14:14:22;17.42;;;9.43;;
40945;SDS011;55635;50.264;11.918;2024-01-15T14:17:03;18.73;;;9.32;;
40945;SDS011;55635;50.264;11.918;2024-01-15T14:19:44;20.05;;;9.45;;
40945;SDS011;55635;50.264;11.918;2024-01-15T14:22:25;13.98;;;8.20;;
40945;SDS011;55635;50.264;11.918;2024-01-15T14:25:08;15.55;;;8.05;;
40945;SDS011;55635;50.264;11.918;2024-01-15T14:27:49;15.70;;;8.40;;
40945;SDS011;55635;50.264;11.918;2024-01-15T14:30:30;15.65;;;8.52;;
40945;SDS011;55635;50.264;11.918;2024-01-15T14:33:12;15.80;;;8.13;;
40945;SDS011;55635;50.264;11.918;2024-01-15T14:35:53;18.10;;;8.88;;
40945;SDS011;55635;50.264;11.918;2024-01-15T14:38:34;17.63;;;9.10;;
40945;SDS011;55635;50.264;11.918;2024-01-15T14:41:16;18.27;;;9.02;;
40945;SDS011;55635;50.264;11.918;2024-01-15T14:43:57;15.60;;;8.45;;
40945;SDS011;55635;50.264;11.918;2024-01-15T14:46:38;17.63;;;8.45;;
40945;SDS011;55635;50.264;11.918;2024-01-15T14:49:20;18.60;;;9.27;;
40945;SDS011;55635;50.264;11.918;2024-01-15T14:52:01;19.38;;;8.88;;
40945;SDS011;55635;50.264;11.918;2024-01-15T14:54:42;17.38;;;9.20;;
40945;SDS011;55635;50.264;11.918;2024-01-15T14:57:24;21.80;;;10.57;;
40945;SDS011;55635;50.264;11.918;2024-01-15T15:00:05;22.67;;;10.80;;
40945;SDS011;55635;50.264;11.918;2024-01-15T15:02:48;20.17;;;9.88;;
40945;SDS011;55635;50.264;11.918;2024-01-15T15:05:29;19.85;;;10.55;;
40945;SDS011;55635;50.264;11.918;2024-01-15T15:08:10;19.90;;;10.13;;
40945;SDS011;55635;50.264;11.918;2024-01-15T15:10:52;19.17;;;10.30;;
40945;SDS011;55635;50.264;11.918;2024-01-15T15:13:33;19.75;;;10.18;;
40945;SDS011;55635;50.264;11.918;2024-01-15T15:16:15;22.60;;;10.82;;
40945;SDS011;55635;50.264;11.918;2024-01-15T15:18:56;23.38;;;10.95;;
40945;SDS011;55635;50.264;11.918;2024-01-15T15:21:37;21.40;;;9.82;;
40945;SDS011;55635;50.264;11.918;2024-01-15T15:24:18;17.58;;;9.35;;
40945;SDS011;55635;50.264;11.918;2024-01-15T15:26:59;22.85;;;9.90;;
40945;SDS011;55635;50.264;11.918;2024-01-15T15:29:40;18.92;;;10.43;;
40945;SDS011;55635;50.264;11.918;2024-01-15T15:32:22;18.65;;;9.90;;
40945;SDS011;55635;50.264;11.918;2024-01-15T15:35:03;19.90;;;9.60;;
40945;SDS011;55635;50.264;11.918;2024-01-15T15:37:45;18.65;;;8.75;;
40945;SDS011;55635;50.264;11.918;2024-01-15T15:40:26;23.67;;;8.82;;
40945;SDS011;55635;50.264;11.918;2024-01-15T15:43:07;17.10;;;9.27;;